Time;durP1;ratioP1;P1;durP2;ratioP2;P2;SDS_P1;SDS_P2;PMS_P1;PMS_P2;Temp;Humidity;BMP_temperature;BMP_pressure;BME280_temperature;BME280_humidity;BME280_pressure;Samples;Min_cycle;Max_cycle;Signal;HPM_P1;HPM_P2
2023/09/30 04:04:40;;;;;;;0.30;0.20;;;15.20;99.90;;;;;;6215390;22;20425;-71
2023/09/30 04:07:06;;;;;;;0.30;0.30;;;15.20;99.90;;;;;;5091508;28;20528;-70
2023/09/30 04:09:32;;;;;;;0.30;0.30;;;15.20;99.90;;;;;;5073601;28;20234;-70
2023/09/30 04:11:58;;;;;;;0.30;0.30;;;15.20;99.90;;;;;;5072703;28;20426;-70
2023/09/30 04:14:25;;;;;;;0.33;0.33;;;15.20;99.90;;;;;;5088213;28;20415;-69
2023/09/30 04:16:50;;;;;;;0.30;0.30;;;15.20;99.90;;;;;;5073496;28;20168;-70
2023/09/30 04:19:16;;;;;;;0.30;0.30;;;15.20;99.90;;;;;;5072312;28;20837;-70
2023/09/30 04:21:42;;;;;;;0.30;0.30;;;15.20;99.90;;;;;;5062900;28;20503;-69
2023/09/30 04:24:09;;;;;;;0.33;0.30;;;15.20;99.90;;;;;;5052542;28;20204;-69
2023/09/30 04:26:34;;;;;;;0.30;0.30;;;15.20;99.90;;;;;;5070000;28;20409;-69
2023/09/30 04:29:01;;;;;;;0.30;0.30;;;15.20;99.90;;;;;;5071859;28;20393;-69
2023/09/30 04:31:28;;;;;;;0.30;0.30;;;15.20;99.90;;;;;;5072972;28;20568;-69
2023/09/30 04:33:54;;;;;;;0.30;0.30;;;15.10;99.90;;;;;;5071714;28;20796;-70
2023/09/30 04:36:20;;;;;;;0.30;0.30;;;15.20;99.90;;;;;;5070443;28;20461;-70
2023/09/30 04:38:47;;;;;;;0.30;0.30;;;15.20;99.90;;;;;;5075631;28;20335;-69
2023/09/30 04:41:13;;;;;;;0.30;0.30;;;15.10;99.90;;;;;;5076318;28;20472;-69
2023/09/30 04:43:39;;;;;;;0.50;0.50;;;15.20;99.90;;;;;;5076964;28;20889;-69
2023/09/30 04:46:07;;;;;;;0.30;0.30;;;15.20;99.90;;;;;;5076725;28;20506;-69
2023/09/30 04:48:33;;;;;;;0.40;0.37;;;15.10;99.90;;;;;;5076459;28;20482;-70
2023/09/30 04:50:59;;;;;;;0.30;0.30;;;15.20;99.90;;;;;;5072275;28;20499;-70
2023/09/30 04:53:24;;;;;;;0.30;0.30;;;15.20;99.90;;;;;;5056726;28;20768;-69
2023/09/30 04:55:50;;;;;;;0.30;0.30;;;15.20;99.90;;;;;;5075173;28;20706;-69
2023/09/30 04:58:16;;;;;;;0.50;0.50;;;15.20;99.90;;;;;;5092865;28;20177;-69
2023/09/30 05:00:42;;;;;;;0.60;0.60;;;15.20;99.90;;;;;;5072716;28;20185;-70
2023/09/30 05:03:08;;;;;;;0.30;0.30;;;15.20;99.90;;;;;;5056661;28;20450;-70
2023/09/30 05:05:35;;;;;;;0.30;0.30;;;15.20;99.90;;;;;;5073785;28;20446;-69
2023/09/30 05:08:01;;;;;;;0.37;0.33;;;15.20;99.90;;;;;;5075582;28;20174;-70
2023/09/30 05:10:27;;;;;;;0.30;0.30;;;15.20;99.90;;;;;;5075862;28;20427;-69
2023/09/30 05:12:54;;;;;;;0.30;0.30;;;15.20;99.90;;;;;;5076519;28;20401;-69
2023/09/30 05:15:21;;;;;;;0.30;0.30;;;15.20;99.90;;;;;;5074917;28;20519;-70
2023/09/30 05:17:47;;;;;;;0.30;0.20;;;15.20;99.90;;;;;;5075034;28;20439;-69
2023/09/30 05:20:17;;;;;;;0.30;0.30;;;15.20;99.90;;;;;;5068599;28;20428;-69
2023/09/30 05:22:45;;;;;;;0.30;0.30;;;15.20;99.90;;;;;;5074501;28;20455;-69
2023/09/30 05:25:12;;;;;;;0.30;0.30;;;15.10;99.90;;;;;;5070766;28;20446;-70
2023/09/30 05:27:37;;;;;;;0.30;0.30;;;15.20;99.90;;;;;;5073632;28;20458;-71
2023/09/30 05:30:06;;;;;;;0.30;0.30;;;15.20;99.90;;;;;;5070132;28;20459;-70
2023/09/30 05:32:32;;;;;;;0.30;0.30;;;15.20;99.90;;;;;;5076035;28;20256;-69
2023/09/30 05:34:58;;;;;;;0.30;0.20;;;15.30;99.90;;;;;;5066792;28;20450;-68
2023/09/30 05:37:24;;;;;;;0.30;0.30;;;15.30;99.90;;;;;;5072937;28;20425;-71
2023/09/30 05:39:50;;;;;;;0.30;0.30;;;15.30;99.90;;;;;;5073574;28;20192;-70
2023/09/30 05:42:17;;;;;;;0.30;0.30;;;15.30;99.90;;;;;;5075191;28;20423;-70
2023/09/30 05:44:42;;;;;;;0.30;0.30;;;15.40;99.90;;;;;;5074767;28;20486;-67
2023/09/30 05:47:08;;;;;;;0.30;0.30;;;15.40;99.90;;;;;;5064219;28;20537;-68
2023/09/30 05:49:34;;;;;;;0.30;0.30;;;15.50;99.90;;;;;;5068506;28;20182;-69
2023/09/30 05:52:00;;;;;;;0.30;0.30;;;15.50;99.90;;;;;;5058983;28;20177;-69
2023/09/30 05:54:25;;;;;;;0.30;0.30;;;15.50;99.90;;;;;;5065113;28;20477;-63
2023/09/30 05:56:51;;;;;;;0.40;0.40;;;15.60;99.90;;;;;;5075724;28;20179;-63
2023/09/30 05:59:16;;;;;;;0.43;0.43;;;15.60;99.90;;;;;;5073964;28;20169;-66
2023/09/30 06:01:42;;;;;;;0.30;0.20;;;15.60;99.90;;;;;;5066546;28;20247;-68
2023/09/30 06:04:08;;;;;;;0.30;0.30;;;15.70;99.90;;;;;;5053607;28;20202;-65
2023/09/30 06:06:33;;;;;;;0.30;0.30;;;15.70;99.90;;;;;;5055297;28;20627;-67
2023/09/30 06:08:59;;;;;;;0.33;0.33;;;15.70;99.90;;;;;;5063304;28;20607;-68
2023/09/30 06:11:28;;;;;;;0.30;0.30;;;15.80;99.90;;;;;;5055464;28;20201;-64
2023/09/30 06:13:58;;;;;;;0.87;0.77;;;15.90;99.90;;;;;;5054693;28;20187;-64
2023/09/30 06:16:26;;;;;;;0.30;0.20;;;15.90;99.90;;;;;;5055511;28;20403;-72
2023/09/30 06:18:52;;;;;;;0.53;0.53;;;16.00;99.90;;;;;;5055114;28;20413;-67
2023/09/30 06:21:20;;;;;;;0.30;0.30;;;16.00;99.90;;;;;;5055112;28;20376;-66
2023/09/30 06:23:47;;;;;;;0.30;0.30;;;16.10;99.90;;;;;;5068078;28;20464;-65
2023/09/30 06:26:13;;;;;;;0.30;0.20;;;16.20;99.90;;;;;;5073772;28;20795;-70
2023/09/30 06:28:42;;;;;;;0.30;0.30;;;16.20;99.90;;;;;;5068726;28;20449;-70
2023/09/30 06:31:08;;;;;;;0.30;0.30;;;16.30;99.90;;;;;;5071847;28;20424;-74
2023/09/30 06:33:38;;;;;;;0.30;0.30;;;16.40;99.90;;;;;;5063371;28;20474;-67
2023/09/30 06:36:13;;;;;;;0.30;0.30;;;16.40;99.90;;;;;;5055674;28;20460;-67
2023/09/30 06:38:41;;;;;;;0.30;0.30;;;16.50;99.90;;;;;;5067878;28;20759;-69
2023/09/30 06:41:07;;;;;;;0.60;0.60;;;16.60;99.90;;;;;;5053335;28;20432;-68
2023/09/30 06:43:35;;;;;;;0.90;0.90;;;16.60;99.90;;;;;;5054298;28;20460;-68
2023/09/30 06:46:07;;;;;;;0.30;0.30;;;16.70;99.90;;;;;;5074253;28;20473;-68
2023/09/30 06:48:33;;;;;;;0.30;0.30;;;16.60;99.90;;;;;;5074111;28;20859;-70
2023/09/30 06:51:00;;;;;;;0.40;0.40;;;16.60;99.90;;;;;;5074388;28;20414;-69
2023/09/30 06:53:25;;;;;;;0.30;0.30;;;16.70;99.90;;;;;;5067635;28;20179;-68
2023/09/30 06:55:54;;;;;;;0.30;0.30;;;16.90;99.90;;;;;;5060206;28;20445;-69
2023/09/30 06:58:22;;;;;;;0.37;0.30;;;17.00;99.90;;;;;;5073345;28;20666;-70
2023/09/30 07:00:51;;;;;;;0.30;0.30;;;17.30;99.90;;;;;;5074073;28;20412;-69
2023/09/30 07:03:19;;;;;;;0.30;0.20;;;17.50;99.90;;;;;;5067638;28;20545;-69
2023/09/30 07:05:45;;;;;;;0.30;0.30;;;17.50;99.90;;;;;;5065314;28;20872;-68
2023/09/30 07:08:12;;;;;;;0.30;0.30;;;17.50;99.90;;;;;;5074257;28;20502;-69
2023/09/30 07:10:38;;;;;;;0.30;0.30;;;17.50;99.90;;;;;;5066883;28;20425;-70
2023/09/30 07:13:06;;;;;;;0.63;0.60;;;17.50;99.90;;;;;;5071528;28;20466;-65
2023/09/30 07:15:32;;;;;;;0.30;0.30;;;17.50;99.90;;;;;;5073551;28;20671;-69
2023/09/30 07:17:57;;;;;;;0.30;0.20;;;17.60;99.90;;;;;;5073096;28;20413;-67
2023/09/30 07:20:23;;;;;;;0.30;0.30;;;17.60;99.90;;;;;;5070807;28;20259;-68
2023/09/30 07:22:49;;;;;;;0.30;0.30;;;17.70;99.90;;;;;;5073137;28;20259;-68
2023/09/30 07:25:16;;;;;;;0.30;0.30;;;17.80;99.90;;;;;;5068424;28;20722;-68
2023/09/30 07:27:44;;;;;;;0.37;0.37;;;17.80;99.90;;;;;;5053654;28;20412;-66
2023/09/30 07:30:12;;;;;;;0.30;0.30;;;17.90;99.90;;;;;;5073278;28;20407;-63
2023/09/30 07:32:38;;;;;;;0.30;0.30;;;17.90;99.90;;;;;;5072866;28;20439;-66
2023/09/30 07:35:04;;;;;;;0.30;0.30;;;18.00;99.90;;;;;;5073253;28;20882;-68
2023/09/30 07:37:29;;;;;;;0.30;0.30;;;18.10;99.90;;;;;;5073700;28;20431;-70
2023/09/30 07:39:55;;;;;;;0.30;0.30;;;18.30;99.90;;;;;;5072607;28;20427;-69
2023/09/30 07:42:22;;;;;;;0.30;0.20;;;18.50;99.90;;;;;;5063283;28;20189;-67
2023/09/30 07:44:48;;;;;;;0.30;0.30;;;18.50;99.90;;;;;;5053159;28;20196;-68
2023/09/30 07:47:14;;;;;;;0.30;0.20;;;18.60;99.90;;;;;;5053345;28;20408;-67
2023/09/30 07:49:40;;;;;;;0.30;0.20;;;18.70;99.90;;;;;;5063118;28;20928;-68
2023/09/30 07:52:05;;;;;;;0.30;0.30;;;18.70;99.90;;;;;;5054463;28;20794;-67
2023/09/30 07:54:31;;;;;;;0.50;0.50;;;18.80;99.90;;;;;;5053038;28;20180;-67
2023/09/30 07:56:58;;;;;;;0.30;0.30;;;18.90;99.90;;;;;;5053274;28;20165;-68
2023/09/30 07:59:24;;;;;;;0.33;0.33;;;19.00;99.90;;;;;;5053305;28;20185;-64
2023/09/30 08:01:51;;;;;;;0.30;0.20;;;19.30;99.90;;;;;;5055593;28;20440;-64
2023/09/30 08:04:17;;;;;;;0.30;0.20;;;19.50;99.90;;;;;;5071821;28;20437;-65
2023/09/30 08:06:43;;;;;;;0.30;0.30;;;19.70;99.90;;;;;;5066622;28;20442;-65
2023/09/30 08:09:11;;;;;;;0.30;0.20;;;19.80;99.90;;;;;;5072293;28;20208;-66
2023/09/30 08:11:37;;;;;;;0.30;0.20;;;20.10;99.90;;;;;;5068915;28;20192;-66
2023/09/30 08:14:06;;;;;;;0.30;0.20;;;20.60;99.90;;;;;;5063004;28;20414;-65
2023/09/30 08:16:33;;;;;;;0.30;0.30;;;21.10;99.90;;;;;;5056643;28;20650;-66
2023/09/30 08:18:58;;;;;;;0.30;0.20;;;21.60;99.90;;;;;;5069107;28;20424;-66
2023/09/30 08:21:24;;;;;;;0.30;0.30;;;22.00;99.90;;;;;;5072693;28;20436;-67
2023/09/30 08:23:50;;;;;;;0.30;0.30;;;22.30;99.90;;;;;;5068541;28;20199;-67
2023/09/30 08:26:15;;;;;;;0.30;0.30;;;22.80;99.90;;;;;;5071027;28;20223;-67
2023/09/30 08:28:41;;;;;;;0.50;0.30;;;23.30;99.90;;;;;;5072172;28;20207;-66
2023/09/30 08:31:06;;;;;;;2.20;2.10;;;23.70;99.90;;;;;;5070970;28;20180;-65
2023/09/30 08:33:32;;;;;;;0.40;0.30;;;24.20;99.90;;;;;;5068251;28;20339;-66
2023/09/30 08:36:08;;;;;;;0.40;0.40;;;24.40;99.70;;;;;;5070302;28;20201;-66
2023/09/30 08:38:38;;;;;;;0.40;0.40;;;24.80;99.40;;;;;;5068819;28;20394;-66
2023/09/30 08:41:04;;;;;;;0.30;0.30;;;25.10;97.40;;;;;;5058768;28;20995;-67
2023/09/30 08:43:31;;;;;;;0.43;0.43;;;24.80;97.30;;;;;;5069052;28;20558;-66
2023/09/30 08:45:59;;;;;;;0.40;0.40;;;24.00;98.30;;;;;;5072068;28;20413;-71
2023/09/30 08:48:27;;;;;;;0.77;0.57;;;23.80;99.50;;;;;;5072614;28;20381;-69
2023/09/30 08:50:54;;;;;;;0.40;0.30;;;24.20;98.70;;;;;;5072702;28;20413;-67
2023/09/30 08:53:20;;;;;;;0.30;0.30;;;24.40;98.40;;;;;;5063265;28;20801;-69
2023/09/30 08:55:47;;;;;;;0.30;0.30;;;24.60;98.50;;;;;;5063962;28;20530;-65
2023/09/30 08:58:13;;;;;;;0.30;0.20;;;24.80;97.40;;;;;;5068880;28;20650;-64
2023/09/30 09:00:39;;;;;;;0.40;0.40;;;24.70;97.60;;;;;;5073309;28;20418;-65
2023/09/30 09:03:08;;;;;;;0.40;0.40;;;24.60;97.80;;;;;;5068629;28;20216;-66
2023/09/30 09:05:34;;;;;;;0.60;0.30;;;24.50;97.60;;;;;;5072097;28;20454;-66
2023/09/30 09:08:00;;;;;;;2.10;1.20;;;24.70;97.60;;;;;;5068892;28;20519;-65
2023/09/30 09:10:25;;;;;;;0.30;0.30;;;24.90;97.10;;;;;;5052612;28;20173;-65
2023/09/30 09:12:58;;;;;;;0.40;0.40;;;25.30;96.60;;;;;;5057750;28;20181;-68
2023/09/30 09:15:28;;;;;;;0.57;0.57;;;25.90;95.90;;;;;;5062558;28;20193;-66
2023/09/30 09:17:54;;;;;;;0.40;0.40;;;26.40;94.90;;;;;;5071646;28;20419;-66
2023/09/30 09:20:25;;;;;;;1.90;0.50;;;26.90;94.00;;;;;;5069006;28;20394;-66
2023/09/30 09:22:55;;;;;;;0.47;0.47;;;27.40;93.80;;;;;;5070812;28;20835;-69
2023/09/30 09:25:24;;;;;;;0.30;0.20;;;28.00;92.20;;;;;;5075313;28;20434;-64
2023/09/30 09:27:51;;;;;;;0.80;0.77;;;28.50;91.80;;;;;;5075766;28;20792;-68
2023/09/30 09:30:25;;;;;;;0.40;0.40;;;28.70;90.40;;;;;;5075621;28;20384;-68
2023/09/30 09:33:13;;;;;;;0.40;0.30;;;28.00;91.30;;;;;;5074759;28;20398;-70
2023/09/30 09:35:39;;;;;;;1.07;0.47;;;27.50;91.60;;;;;;5074454;28;20442;-66
2023/09/30 09:38:06;;;;;;;0.30;0.30;;;26.90;92.40;;;;;;5074280;28;20374;-69
2023/09/30 09:40:37;;;;;;;0.40;0.40;;;26.60;92.90;;;;;;5072949;28;20638;-67
2023/09/30 09:43:05;;;;;;;0.30;0.30;;;25.90;92.80;;;;;;5075372;28;20786;-64
2023/09/30 09:45:35;;;;;;;0.60;0.37;;;25.50;93.60;;;;;;5074977;28;20397;-65
2023/09/30 09:48:04;;;;;;;0.37;0.37;;;25.20;94.00;;;;;;5075699;28;20453;-68
2023/09/30 09:50:31;;;;;;;0.40;0.40;;;25.00;94.30;;;;;;5074638;28;20447;-67
2023/09/30 09:53:00;;;;;;;0.30;0.30;;;24.90;94.80;;;;;;5075629;28;20418;-69
2023/09/30 09:55:27;;;;;;;0.97;0.30;;;25.30;95.00;;;;;;5075198;28;20572;-66
2023/09/30 09:57:53;;;;;;;0.53;0.53;;;25.70;93.80;;;;;;5075644;28;20757;-68
2023/09/30 10:00:26;;;;;;;0.40;0.40;;;26.10;93.30;;;;;;5075582;28;20412;-68
2023/09/30 10:02:52;;;;;;;0.63;0.63;;;26.00;93.40;;;;;;5074283;28;20524;-65
2023/09/30 10:05:19;;;;;;;0.30;0.30;;;26.40;93.30;;;;;;5054933;28;20864;-68
2023/09/30 10:07:53;;;;;;;0.30;0.30;;;26.80;92.90;;;;;;5055407;28;20490;-62
2023/09/30 10:10:20;;;;;;;0.37;0.37;;;27.10;91.30;;;;;;5055450;28;20413;-67
2023/09/30 10:12:46;;;;;;;0.30;0.30;;;27.00;90.80;;;;;;5054019;28;20393;-68
2023/09/30 10:15:24;;;;;;;0.50;0.50;;;27.00;90.30;;;;;;5054835;28;20410;-70
2023/09/30 10:18:02;;;;;;;0.50;0.50;;;26.50;90.60;;;;;;5054859;28;20411;-67
2023/09/30 10:20:33;;;;;;;0.40;0.40;;;25.70;90.60;;;;;;5075797;28;20403;-65
2023/09/30 10:23:19;;;;;;;0.30;0.20;;;25.20;91.00;;;;;;5075293;28;20429;-68
2023/09/30 10:26:15;;;;;;;0.30;0.30;;;24.80;92.70;;;;;;5074453;28;20427;-68
2023/09/30 10:28:49;;;;;;;0.43;0.43;;;25.20;92.70;;;;;;5075020;28;20370;-67
2023/09/30 10:31:25;;;;;;;0.30;0.30;;;25.60;91.70;;;;;;5075098;28;20395;-67
2023/09/30 10:34:02;;;;;;;0.70;0.30;;;25.80;91.40;;;;;;5062731;28;20394;-66
2023/09/30 10:36:39;;;;;;;0.40;0.40;;;26.30;90.70;;;;;;5054194;28;20416;-65
2023/09/30 10:39:12;;;;;;;0.40;0.40;;;26.70;90.00;;;;;;5054721;28;20411;-66
2023/09/30 10:41:41;;;;;;;0.40;0.40;;;26.80;90.40;;;;;;5054969;28;20410;-68
2023/09/30 10:44:25;;;;;;;0.43;0.43;;;27.00;89.80;;;;;;5054332;28;20426;-68
2023/09/30 10:46:57;;;;;;;0.30;0.30;;;27.00;90.10;;;;;;5054596;28;20404;-66
2023/09/30 10:49:23;;;;;;;0.30;0.20;;;27.10;88.70;;;;;;5072509;28;20415;-67
2023/09/30 10:52:02;;;;;;;0.30;0.30;;;27.20;87.70;;;;;;5074592;28;20385;-67
2023/09/30 10:54:32;;;;;;;0.30;0.30;;;27.20;88.00;;;;;;5072633;28;20538;-69
2023/09/30 10:56:59;;;;;;;0.30;0.30;;;27.20;88.70;;;;;;5058390;28;20422;-68
2023/09/30 10:59:34;;;;;;;0.60;0.30;;;27.20;87.10;;;;;;5054287;28;20382;-68
2023/09/30 11:02:00;;;;;;;0.30;0.27;;;27.10;88.60;;;;;;5054752;28;20864;-65
2023/09/30 11:04:28;;;;;;;0.30;0.20;;;27.00;88.40;;;;;;5053566;28;20437;-65
2023/09/30 11:06:53;;;;;;;0.60;0.40;;;26.70;88.40;;;;;;5054158;28;20683;-68
2023/09/30 11:09:21;;;;;;;0.30;0.20;;;26.50;88.30;;;;;;5052879;28;20400;-64
2023/09/30 11:11:52;;;;;;;0.83;0.70;;;26.00;88.80;;;;;;5070081;28;20233;-69
2023/09/30 11:14:21;;;;;;;0.83;0.83;;;25.60;88.50;;;;;;5073897;28;20430;-69
2023/09/30 11:16:48;;;;;;;0.73;0.73;;;25.00;90.30;;;;;;5073981;28;20424;-65
2023/09/30 11:19:15;;;;;;;2.87;0.83;;;24.60;90.70;;;;;;5074159;28;20768;-65
2023/09/30 11:21:41;;;;;;;0.30;0.30;;;24.20;90.90;;;;;;5073874;28;20405;-64
2023/09/30 11:24:07;;;;;;;0.67;0.67;;;24.00;91.20;;;;;;5073488;28;20446;-65
2023/09/30 11:26:34;;;;;;;0.30;0.20;;;24.00;91.90;;;;;;5056693;28;20797;-67
2023/09/30 11:29:10;;;;;;;0.60;0.60;;;23.80;91.60;;;;;;5053798;28;20423;-66
2023/09/30 11:31:47;;;;;;;0.30;0.30;;;23.60;92.30;;;;;;5053946;28;20386;-67
2023/09/30 11:34:15;;;;;;;0.40;0.40;;;23.50;92.30;;;;;;5053570;28;20400;-64
2023/09/30 11:36:51;;;;;;;0.33;0.33;;;23.40;92.70;;;;;;5053566;28;20921;-63
2023/09/30 11:39:24;;;;;;;0.30;0.30;;;23.40;92.30;;;;;;5053820;28;20812;-68
2023/09/30 11:41:50;;;;;;;0.50;0.43;;;23.30;93.00;;;;;;5053991;28;20791;-66
2023/09/30 11:44:17;;;;;;;0.30;0.30;;;23.20;92.60;;;;;;5053164;28;20452;-67
2023/09/30 11:46:54;;;;;;;0.47;0.47;;;23.10;93.40;;;;;;5052852;28;20182;-65
2023/09/30 11:49:29;;;;;;;0.80;0.77;;;22.90;92.80;;;;;;5053416;28;20785;-66
2023/09/30 11:51:58;;;;;;;0.30;0.30;;;22.80;92.90;;;;;;5053435;28;20897;-64
2023/09/30 11:54:29;;;;;;;0.30;0.20;;;22.80;92.90;;;;;;5056223;28;20466;-66
2023/09/30 11:56:54;;;;;;;0.30;0.20;;;22.60;93.90;;;;;;5073447;28;20766;-66
2023/09/30 11:59:22;;;;;;;0.87;0.87;;;22.50;93.20;;;;;;5072952;28;20510;-68
2023/09/30 12:01:51;;;;;;;0.30;0.20;;;22.30;93.10;;;;;;5073158;28;20542;-64
2023/09/30 12:04:19;;;;;;;0.30;0.30;;;22.20;93.00;;;;;;5072712;28;20443;-67
2023/09/30 12:06:46;;;;;;;0.30;0.30;;;22.20;93.00;;;;;;5072972;28;20462;-64
2023/09/30 12:09:14;;;;;;;0.50;0.37;;;22.10;93.00;;;;;;5069310;28;20513;-64
2023/09/30 12:11:43;;;;;;;0.30;0.20;;;22.10;93.00;;;;;;5053053;28;20385;-62
2023/09/30 12:14:12;;;;;;;0.33;0.30;;;22.10;93.10;;;;;;5052796;28;20431;-64
2023/09/30 12:16:39;;;;;;;0.30;0.20;;;22.00;93.70;;;;;;5053107;28;20431;-67
2023/09/30 12:19:07;;;;;;;0.40;0.40;;;22.00;93.70;;;;;;5052868;28;20416;-63
2023/09/30 12:21:34;;;;;;;0.40;0.40;;;22.10;93.80;;;;;;5053144;28;20390;-65
2023/09/30 12:24:00;;;;;;;0.37;0.37;;;22.10;93.80;;;;;;5056438;28;20854;-63
2023/09/30 12:26:25;;;;;;;0.30;0.30;;;22.20;93.70;;;;;;5073355;28;20447;-64
2023/09/30 12:28:51;;;;;;;0.40;0.40;;;22.10;93.50;;;;;;5073375;28;20390;-65
2023/09/30 12:31:18;;;;;;;0.43;0.43;;;22.10;93.20;;;;;;5066789;28;20757;-67
2023/09/30 12:33:44;;;;;;;0.30;0.30;;;22.00;94.20;;;;;;5053127;28;20643;-64
2023/09/30 12:36:09;;;;;;;0.30;0.20;;;22.00;94.30;;;;;;5051447;28;20410;-63
2023/09/30 12:38:35;;;;;;;0.30;0.30;;;22.00;93.70;;;;;;5053191;28;20162;-68
2023/09/30 12:41:00;;;;;;;0.40;0.40;;;22.00;93.40;;;;;;5066856;28;20177;-65
2023/09/30 12:43:26;;;;;;;0.30;0.30;;;21.90;93.30;;;;;;5072774;28;20193;-67
2023/09/30 12:45:52;;;;;;;0.30;0.30;;;21.80;93.50;;;;;;5072825;28;20282;-67
2023/09/30 12:48:18;;;;;;;0.30;0.30;;;21.70;93.90;;;;;;5073076;28;20766;-68
2023/09/30 12:50:44;;;;;;;0.57;0.57;;;21.60;93.90;;;;;;5073078;28;20189;-65
2023/09/30 12:53:10;;;;;;;0.70;0.70;;;21.60;93.90;;;;;;5072838;28;20199;-63
2023/09/30 12:55:36;;;;;;;0.30;0.30;;;21.60;93.60;;;;;;5056742;28;20446;-67
2023/09/30 12:58:01;;;;;;;0.30;0.30;;;21.50;93.80;;;;;;5053110;28;20245;-66
2023/09/30 13:00:30;;;;;;;0.30;0.20;;;21.50;93.90;;;;;;5057038;28;20177;-66
2023/09/30 13:02:56;;;;;;;0.30;0.30;;;21.60;93.40;;;;;;5056636;28;20198;-68
2023/09/30 13:05:22;;;;;;;0.30;0.30;;;21.70;93.70;;;;;;5056040;28;21066;-66
2023/09/30 13:07:48;;;;;;;0.30;0.30;;;21.80;93.90;;;;;;5056390;28;20176;-66
2023/09/30 13:10:14;;;;;;;0.30;0.30;;;21.80;93.60;;;;;;5069797;28;20182;-65
2023/09/30 13:12:39;;;;;;;0.30;0.20;;;21.70;93.50;;;;;;5076737;28;20402;-63
2023/09/30 13:15:05;;;;;;;0.30;0.30;;;21.80;93.90;;;;;;5075962;28;20187;-66
2023/09/30 13:17:31;;;;;;;0.37;0.37;;;21.50;93.40;;;;;;5059359;28;20178;-62
2023/09/30 13:19:57;;;;;;;0.40;0.40;;;21.40;93.80;;;;;;5056489;28;20419;-66
2023/09/30 13:22:23;;;;;;;0.30;0.30;;;21.40;94.30;;;;;;5056669;28;20261;-64
2023/09/30 13:24:49;;;;;;;0.30;0.20;;;21.40;94.40;;;;;;5055867;28;20550;-65
2023/09/30 13:27:15;;;;;;;0.30;0.20;;;21.30;94.10;;;;;;5074899;28;20651;-69
2023/09/30 13:29:41;;;;;;;0.30;0.30;;;21.40;94.30;;;;;;5076172;28;20177;-67
2023/09/30 13:32:08;;;;;;;0.30;0.30;;;21.40;94.10;;;;;;5056257;28;20422;-63
2023/09/30 13:34:34;;;;;;;0.30;0.30;;;21.50;94.40;;;;;;5055717;28;20193;-63
2023/09/30 13:36:59;;;;;;;0.30;0.30;;;21.60;94.50;;;;;;5056334;28;20412;-64
2023/09/30 13:39:25;;;;;;;0.30;0.30;;;21.60;94.30;;;;;;5056080;28;20256;-66
2023/09/30 13:41:51;;;;;;;1.20;1.20;;;21.60;94.30;;;;;;5064264;28;20584;-67
2023/09/30 13:44:18;;;;;;;0.30;0.20;;;21.60;94.40;;;;;;5075090;28;20201;-67
2023/09/30 13:46:44;;;;;;;0.60;0.60;;;21.60;94.60;;;;;;5076011;28;20462;-66
2023/09/30 13:49:09;;;;;;;1.17;1.07;;;21.60;94.70;;;;;;5075857;28;20377;-67
2023/09/30 13:51:35;;;;;;;0.33;0.33;;;21.60;94.70;;;;;;5075381;28;20200;-65
2023/09/30 13:54:00;;;;;;;0.30;0.30;;;21.60;94.50;;;;;;5075354;28;20216;-66
2023/09/30 13:56:27;;;;;;;0.30;0.20;;;21.60;94.90;;;;;;5067784;28;20205;-65
2023/09/30 13:58:53;;;;;;;0.30;0.20;;;21.60;94.40;;;;;;5055959;28;20199;-65
2023/09/30 14:01:19;;;;;;;0.30;0.30;;;21.70;94.50;;;;;;5055659;28;20495;-68
2023/09/30 14:03:46;;;;;;;0.30;0.30;;;21.70;94.10;;;;;;5055521;28;20650;-67
2023/09/30 14:06:15;;;;;;;0.30;0.30;;;21.70;93.50;;;;;;5055256;28;20452;-66
2023/09/30 14:08:42;;;;;;;0.30;0.20;;;21.60;93.90;;;;;;5055546;28;20767;-69
2023/09/30 14:11:08;;;;;;;0.63;0.63;;;21.60;93.90;;;;;;5061149;28;20458;-66
2023/09/30 14:13:35;;;;;;;0.30;0.30;;;21.50;93.70;;;;;;5074317;28;20777;-67
2023/09/30 14:16:01;;;;;;;0.60;0.60;;;21.40;93.90;;;;;;5075097;28;20443;-68
2023/09/30 14:18:26;;;;;;;0.53;0.53;;;21.40;94.30;;;;;;5074190;28;20393;-66
2023/09/30 14:20:52;;;;;;;0.30;0.20;;;21.30;94.40;;;;;;5075221;28;20744;-64
2023/09/30 14:23:18;;;;;;;0.30;0.30;;;21.20;94.40;;;;;;5075218;28;20207;-67
2023/09/30 14:25:44;;;;;;;0.30;0.30;;;21.10;94.80;;;;;;5068732;28;20444;-66
2023/09/30 14:28:10;;;;;;;0.30;0.20;;;21.00;95.10;;;;;;5055352;28;20193;-66
2023/09/30 14:30:35;;;;;;;0.33;0.33;;;20.90;95.20;;;;;;5055280;28;20201;-63
2023/09/30 14:33:03;;;;;;;0.30;0.30;;;20.90;95.40;;;;;;5055169;28;20962;-65
2023/09/30 14:35:28;;;;;;;0.30;0.30;;;20.90;95.20;;;;;;5054481;28;20288;-67
2023/09/30 14:37:54;;;;;;;0.30;0.30;;;21.00;95.30;;;;;;5054794;28;20499;-66
2023/09/30 14:40:20;;;;;;;0.30;0.30;;;20.90;95.20;;;;;;5054915;28;20186;-62
2023/09/30 14:42:46;;;;;;;0.30;0.30;;;20.90;95.10;;;;;;5069311;28;20208;-67
2023/09/30 14:45:11;;;;;;;0.30;0.30;;;20.90;95.20;;;;;;5073999;28;20955;-63
2023/09/30 14:47:37;;;;;;;0.30;0.20;;;20.80;95.10;;;;;;5074915;28;20185;-64
2023/09/30 14:50:06;;;;;;;0.30;0.30;;;20.80;94.90;;;;;;5074454;28;20181;-67
2023/09/30 14:52:32;;;;;;;0.30;0.30;;;20.80;95.00;;;;;;5074269;28;20414;-67
2023/09/30 14:54:57;;;;;;;0.40;0.40;;;20.80;95.00;;;;;;5074140;28;20431;-66
2023/09/30 14:57:24;;;;;;;0.30;0.20;;;20.80;95.10;;;;;;5060607;28;20196;-66
2023/09/30 14:59:50;;;;;;;0.30;0.20;;;20.80;94.90;;;;;;5054838;28;20184;-65
2023/09/30 15:02:16;;;;;;;0.77;0.40;;;20.70;95.10;;;;;;5072274;28;20502;-68
2023/09/30 15:04:41;;;;;;;0.37;0.37;;;20.70;94.60;;;;;;5073808;28;20566;-63
2023/09/30 15:07:07;;;;;;;1.10;0.33;;;20.70;95.00;;;;;;5073836;28;20639;-65
2023/09/30 15:09:33;;;;;;;0.87;0.87;;;20.60;95.30;;;;;;5073766;28;20496;-64
2023/09/30 15:11:58;;;;;;;0.33;0.33;;;20.70;95.30;;;;;;5074205;28;20173;-66
2023/09/30 15:14:24;;;;;;;0.30;0.20;;;20.70;95.50;;;;;;5073595;28;20177;-66
2023/09/30 15:16:50;;;;;;;0.47;0.47;;;20.70;95.30;;;;;;5066546;28;20188;-64
2023/09/30 15:19:15;;;;;;;0.37;0.37;;;20.80;95.10;;;;;;5054219;28;20181;-66
2023/09/30 15:21:41;;;;;;;0.30;0.20;;;20.70;95.00;;;;;;5054219;28;20260;-65
2023/09/30 15:24:08;;;;;;;0.30;0.30;;;20.70;95.10;;;;;;5053681;28;20231;-65
2023/09/30 15:26:34;;;;;;;0.30;0.27;;;20.70;94.80;;;;;;5053948;28;20769;-65
2023/09/30 15:29:02;;;;;;;0.40;0.40;;;20.70;94.90;;;;;;5052715;28;20408;-64
2023/09/30 15:31:29;;;;;;;0.30;0.30;;;20.70;94.60;;;;;;5060119;28;20430;-66
2023/09/30 15:33:55;;;;;;;0.30;0.20;;;20.60;94.70;;;;;;5073688;28;20411;-63
2023/09/30 15:36:21;;;;;;;0.30;0.30;;;20.60;95.10;;;;;;5073625;28;20762;-67
2023/09/30 15:38:47;;;;;;;0.30;0.30;;;20.50;95.00;;;;;;5074261;28;20413;-65
2023/09/30 15:41:14;;;;;;;0.30;0.30;;;20.50;94.90;;;;;;5073765;28;20556;-64
2023/09/30 15:43:40;;;;;;;0.30;0.20;;;20.50;95.00;;;;;;5073722;28;20267;-67
2023/09/30 15:46:08;;;;;;;0.63;0.30;;;20.50;95.00;;;;;;5062926;28;20444;-66
2023/09/30 15:48:33;;;;;;;0.53;0.53;;;20.50;95.10;;;;;;5053890;28;20198;-66
2023/09/30 15:50:59;;;;;;;0.30;0.20;;;20.60;95.10;;;;;;5053784;28;20420;-67
2023/09/30 15:53:25;;;;;;;0.30;0.30;;;20.50;95.00;;;;;;5053629;28;20175;-64
2023/09/30 15:55:50;;;;;;;0.30;0.20;;;20.40;94.80;;;;;;5053306;28;20221;-67
2023/09/30 15:58:16;;;;;;;0.30;0.30;;;20.40;95.20;;;;;;5053741;28;20591;-67
2023/09/30 16:00:42;;;;;;;0.30;0.30;;;20.30;95.60;;;;;;5062131;28;20272;-63
2023/09/30 16:03:09;;;;;;;0.30;0.20;;;20.20;95.30;;;;;;5073583;28;20204;-65
2023/09/30 16:05:37;;;;;;;0.40;0.40;;;20.10;95.30;;;;;;5072760;28;20429;-68
2023/09/30 16:08:03;;;;;;;0.30;0.30;;;20.10;95.60;;;;;;5072132;28;20422;-66
2023/09/30 16:10:29;;;;;;;0.30;0.30;;;20.00;95.90;;;;;;5073383;28;20426;-67
2023/09/30 16:12:55;;;;;;;0.30;0.30;;;20.00;95.80;;;;;;5073701;28;20404;-66
2023/09/30 16:15:21;;;;;;;0.30;0.30;;;20.00;95.80;;;;;;5063176;28;20440;-66
2023/09/30 16:17:47;;;;;;;0.30;0.30;;;19.90;95.80;;;;;;5053370;28;20407;-67
2023/09/30 16:20:13;;;;;;;0.30;0.30;;;19.90;95.60;;;;;;5053521;28;20182;-64
2023/09/30 16:22:39;;;;;;;0.30;0.30;;;19.90;95.80;;;;;;5053596;28;20886;-66
2023/09/30 16:25:05;;;;;;;0.30;0.30;;;19.80;95.80;;;;;;5052787;28;20197;-66
2023/09/30 16:27:31;;;;;;;0.30;0.30;;;19.70;95.90;;;;;;5053087;28;20165;-67
2023/09/30 16:29:57;;;;;;;0.67;0.67;;;19.70;96.10;;;;;;5059761;28;20492;-69
2023/09/30 16:32:23;;;;;;;0.30;0.30;;;19.60;96.20;;;;;;5073309;28;20411;-67
2023/09/30 16:34:49;;;;;;;0.30;0.30;;;19.50;96.40;;;;;;5075909;28;20586;-67
2023/09/30 16:37:14;;;;;;;0.30;0.20;;;19.50;96.90;;;;;;5077391;28;20433;-68
2023/09/30 16:39:41;;;;;;;0.30;0.30;;;19.40;97.00;;;;;;5077217;28;20180;-68
2023/09/30 16:42:07;;;;;;;0.40;0.40;;;19.30;97.20;;;;;;5077231;28;20169;-65
2023/09/30 16:44:32;;;;;;;0.50;0.50;;;19.20;97.40;;;;;;5070763;28;20813;-65
2023/09/30 16:46:58;;;;;;;0.30;0.30;;;19.20;97.30;;;;;;5057105;28;20177;-68
2023/09/30 16:49:24;;;;;;;0.40;0.40;;;19.10;97.50;;;;;;5056870;28;20254;-64
2023/09/30 16:51:50;;;;;;;0.30;0.30;;;19.00;97.70;;;;;;5057049;28;20502;-66